Terminal Aerodrome Forecast
Issued by NWS

Home | Current Version | Previous Version | Graphics & Text | Print | Product List | Glossary On
Versions: 1 2 3 4 5 6 7 8 9 10 11 12 13 14 15 16 17 18 19 20 21 22 23 24 25 26 27 28 29 30 31 32 33 34 35
000
FTUS43 KGRB 031721
TAFRHI
TAF
KRHI 031721Z 0318/0418 25011KT P6SM SCT045 BKN250
     FM032200 25007KT P6SM VCSH SCT045 BKN090
      TEMPO 0323/0402 5SM -TSRA BR BKN030CB
     FM040200 VRB02KT P6SM SCT040 SCT090
     FM040900 VRB02KT 5SM BR SCT003
      TEMPO 0410/0414 2SM BR
     FM041400 VRB03KT P6SM SCT035=

USA.gov is the U.S. government's official web portal to all federal, state and local government web resources and services.